<?xml version="1.0" encoding="UTF-8" standalone="no" ?>
<gpx xmlns="http://www.topografix.com/GPX/1/1" xmlns:xsi="http://www.w3.org/2001/XMLSchema-instance" xsi:schemaLocation="http://www.topografix.com/GPX/1/1 http://www.topografix.com/GPX/1/1/gpx.xsd" version="1.1" creator="VisuGPX - https://www.visugpx.com">
  <metadata>
    <name>ARQUES LA SEYNE SUR MER 1497 KM</name>
    <desc><![CDATA[Rando de Arques dans le Pas de Calais jusque La Seyne sur Mer dans le Var, 1497 km]]></desc>
  </metadata>
  <trk>
    <name><![CDATA[58 - MARSEILLE 11ème LA CIOTAT 25.5 KM]]></name>
    <extensions>
      <line xmlns="http://www.topografix.com/GPX/gpx_style/0/2">
        <color>880000</color>
        <width>4</width>
      </line>
    </extensions>
    <trkseg>
      <trkpt lat="43.2867" lon="5.51175">
        <ele>74</ele>
        <time>2021-12-19T19:20:03+01:00</time>
      </trkpt>
      <trkpt lat="43.28705" lon="5.51178">
        <ele>78</ele>
        <time>2021-12-19T19:20:08+01:00</time>
      </trkpt>
      <trkpt lat="43.28709" lon="5.51032">
        <ele>76</ele>
        <time>2021-12-19T19:20:13+01:00</time>
      </trkpt>
      <trkpt lat="43.28724" lon="5.51032">
        <ele>76</ele>
        <time>2021-12-19T19:20:18+01:00</time>
      </trkpt>
      <trkpt lat="43.28727" lon="5.51073">
        <ele>77</ele>
        <time>2021-12-19T19:20:23+01:00</time>
      </trkpt>
      <trkpt lat="43.28696" lon="5.51401">
        <ele>80</ele>
        <time>2021-12-19T19:20:28+01:00</time>
      </trkpt>
      <trkpt lat="43.28496" lon="5.51415">
        <ele>74</ele>
        <time>2021-12-19T19:20:33+01:00</time>
      </trkpt>
      <trkpt lat="43.28375" lon="5.51424">
        <ele>73</ele>
        <time>2021-12-19T19:20:38+01:00</time>
      </trkpt>
      <trkpt lat="43.28378" lon="5.51496">
        <ele>74</ele>
        <time>2021-12-19T19:20:43+01:00</time>
      </trkpt>
      <trkpt lat="43.28169" lon="5.51503">
        <ele>79</ele>
        <time>2021-12-19T19:20:48+01:00</time>
      </trkpt>
      <trkpt lat="43.2814" lon="5.51598">
        <ele>79</ele>
        <time>2021-12-19T19:20:53+01:00</time>
      </trkpt>
      <trkpt lat="43.28106" lon="5.51613">
        <ele>79</ele>
        <time>2021-12-19T19:20:58+01:00</time>
      </trkpt>
      <trkpt lat="43.28027" lon="5.51619">
        <ele>81</ele>
        <time>2021-12-19T19:21:03+01:00</time>
      </trkpt>
      <trkpt lat="43.27972" lon="5.51651">
        <ele>84</ele>
        <time>2021-12-19T19:21:08+01:00</time>
      </trkpt>
      <trkpt lat="43.27859" lon="5.51746">
        <ele>89</ele>
        <time>2021-12-19T19:21:13+01:00</time>
      </trkpt>
      <trkpt lat="43.2781" lon="5.51896">
        <ele>91</ele>
        <time>2021-12-19T19:21:18+01:00</time>
      </trkpt>
      <trkpt lat="43.27753" lon="5.52048">
        <ele>95</ele>
        <time>2021-12-19T19:21:23+01:00</time>
      </trkpt>
      <trkpt lat="43.27714" lon="5.52141">
        <ele>97</ele>
        <time>2021-12-19T19:21:28+01:00</time>
      </trkpt>
      <trkpt lat="43.27685" lon="5.52271">
        <ele>100</ele>
        <time>2021-12-19T19:21:33+01:00</time>
      </trkpt>
      <trkpt lat="43.27659" lon="5.52353">
        <ele>102</ele>
        <time>2021-12-19T19:21:38+01:00</time>
      </trkpt>
      <trkpt lat="43.27616" lon="5.52431">
        <ele>107</ele>
        <time>2021-12-19T19:21:43+01:00</time>
      </trkpt>
      <trkpt lat="43.27595" lon="5.52578">
        <ele>110</ele>
        <time>2021-12-19T19:21:48+01:00</time>
      </trkpt>
      <trkpt lat="43.27585" lon="5.52699">
        <ele>112</ele>
        <time>2021-12-19T19:21:53+01:00</time>
      </trkpt>
      <trkpt lat="43.27545" lon="5.52843">
        <ele>120</ele>
        <time>2021-12-19T19:21:58+01:00</time>
      </trkpt>
      <trkpt lat="43.27541" lon="5.5289">
        <ele>120</ele>
        <time>2021-12-19T19:22:03+01:00</time>
      </trkpt>
      <trkpt lat="43.27438" lon="5.52992">
        <ele>127</ele>
        <time>2021-12-19T19:22:08+01:00</time>
      </trkpt>
      <trkpt lat="43.2744" lon="5.53071">
        <ele>127</ele>
        <time>2021-12-19T19:22:13+01:00</time>
      </trkpt>
      <trkpt lat="43.27401" lon="5.53224">
        <ele>130</ele>
        <time>2021-12-19T19:22:18+01:00</time>
      </trkpt>
      <trkpt lat="43.2733" lon="5.53458">
        <ele>134</ele>
        <time>2021-12-19T19:22:23+01:00</time>
      </trkpt>
      <trkpt lat="43.27287" lon="5.53607">
        <ele>139</ele>
        <time>2021-12-19T19:22:28+01:00</time>
      </trkpt>
      <trkpt lat="43.27247" lon="5.53738">
        <ele>154</ele>
        <time>2021-12-19T19:22:33+01:00</time>
      </trkpt>
      <trkpt lat="43.27231" lon="5.53866">
        <ele>162</ele>
        <time>2021-12-19T19:22:38+01:00</time>
      </trkpt>
      <trkpt lat="43.27177" lon="5.5408">
        <ele>178</ele>
        <time>2021-12-19T19:22:43+01:00</time>
      </trkpt>
      <trkpt lat="43.27123" lon="5.54251">
        <ele>196</ele>
        <time>2021-12-19T19:22:48+01:00</time>
      </trkpt>
      <trkpt lat="43.27078" lon="5.54334">
        <ele>191</ele>
        <time>2021-12-19T19:22:53+01:00</time>
      </trkpt>
      <trkpt lat="43.27027" lon="5.54448">
        <ele>192</ele>
        <time>2021-12-19T19:22:58+01:00</time>
      </trkpt>
      <trkpt lat="43.26979" lon="5.54523">
        <ele>197</ele>
        <time>2021-12-19T19:23:03+01:00</time>
      </trkpt>
      <trkpt lat="43.26928" lon="5.54522">
        <ele>196</ele>
        <time>2021-12-19T19:23:08+01:00</time>
      </trkpt>
      <trkpt lat="43.26854" lon="5.54374">
        <ele>198</ele>
        <time>2021-12-19T19:23:13+01:00</time>
      </trkpt>
      <trkpt lat="43.26808" lon="5.54378">
        <ele>194</ele>
        <time>2021-12-19T19:23:18+01:00</time>
      </trkpt>
      <trkpt lat="43.26806" lon="5.5448">
        <ele>183</ele>
        <time>2021-12-19T19:23:23+01:00</time>
      </trkpt>
      <trkpt lat="43.26737" lon="5.54587">
        <ele>151</ele>
        <time>2021-12-19T19:23:28+01:00</time>
      </trkpt>
      <trkpt lat="43.268" lon="5.54595">
        <ele>151</ele>
        <time>2021-12-19T19:23:33+01:00</time>
      </trkpt>
      <trkpt lat="43.26643" lon="5.54823">
        <ele>150</ele>
        <time>2021-12-19T19:23:38+01:00</time>
      </trkpt>
      <trkpt lat="43.26586" lon="5.54823">
        <ele>150</ele>
        <time>2021-12-19T19:23:43+01:00</time>
      </trkpt>
      <trkpt lat="43.26583" lon="5.54948">
        <ele>147</ele>
        <time>2021-12-19T19:23:48+01:00</time>
      </trkpt>
      <trkpt lat="43.26563" lon="5.55082">
        <ele>142</ele>
        <time>2021-12-19T19:23:53+01:00</time>
      </trkpt>
      <trkpt lat="43.26575" lon="5.55223">
        <ele>143</ele>
        <time>2021-12-19T19:23:58+01:00</time>
      </trkpt>
      <trkpt lat="43.26683" lon="5.55371">
        <ele>140</ele>
        <time>2021-12-19T19:24:03+01:00</time>
      </trkpt>
      <trkpt lat="43.26769" lon="5.55308">
        <ele>137</ele>
        <time>2021-12-19T19:24:08+01:00</time>
      </trkpt>
      <trkpt lat="43.26793" lon="5.5536">
        <ele>135</ele>
        <time>2021-12-19T19:24:13+01:00</time>
      </trkpt>
      <trkpt lat="43.26796" lon="5.55456">
        <ele>136</ele>
        <time>2021-12-19T19:24:18+01:00</time>
      </trkpt>
      <trkpt lat="43.2692" lon="5.55719">
        <ele>131</ele>
        <time>2021-12-19T19:24:23+01:00</time>
      </trkpt>
      <trkpt lat="43.26893" lon="5.55852">
        <ele>127</ele>
        <time>2021-12-19T19:24:28+01:00</time>
      </trkpt>
      <trkpt lat="43.26979" lon="5.55856">
        <ele>123</ele>
        <time>2021-12-19T19:24:33+01:00</time>
      </trkpt>
      <trkpt lat="43.27028" lon="5.55945">
        <ele>120</ele>
        <time>2021-12-19T19:24:38+01:00</time>
      </trkpt>
      <trkpt lat="43.27017" lon="5.56026">
        <ele>120</ele>
        <time>2021-12-19T19:24:43+01:00</time>
      </trkpt>
      <trkpt lat="43.27057" lon="5.56082">
        <ele>123</ele>
        <time>2021-12-19T19:24:48+01:00</time>
      </trkpt>
      <trkpt lat="43.27041" lon="5.5623">
        <ele>129</ele>
        <time>2021-12-19T19:24:53+01:00</time>
      </trkpt>
      <trkpt lat="43.27073" lon="5.56286">
        <ele>130</ele>
        <time>2021-12-19T19:24:58+01:00</time>
      </trkpt>
      <trkpt lat="43.27044" lon="5.5636">
        <ele>139</ele>
        <time>2021-12-19T19:25:03+01:00</time>
      </trkpt>
      <trkpt lat="43.27065" lon="5.56497">
        <ele>152</ele>
        <time>2021-12-19T19:25:08+01:00</time>
      </trkpt>
      <trkpt lat="43.27022" lon="5.56559">
        <ele>174</ele>
        <time>2021-12-19T19:25:13+01:00</time>
      </trkpt>
      <trkpt lat="43.27103" lon="5.56863">
        <ele>203</ele>
        <time>2021-12-19T19:25:18+01:00</time>
      </trkpt>
      <trkpt lat="43.27117" lon="5.57063">
        <ele>222</ele>
        <time>2021-12-19T19:25:23+01:00</time>
      </trkpt>
      <trkpt lat="43.27073" lon="5.57152">
        <ele>237</ele>
        <time>2021-12-19T19:25:28+01:00</time>
      </trkpt>
      <trkpt lat="43.27106" lon="5.57218">
        <ele>241</ele>
        <time>2021-12-19T19:25:33+01:00</time>
      </trkpt>
      <trkpt lat="43.27122" lon="5.57714">
        <ele>288</ele>
        <time>2021-12-19T19:25:38+01:00</time>
      </trkpt>
      <trkpt lat="43.27173" lon="5.57948">
        <ele>303</ele>
        <time>2021-12-19T19:25:43+01:00</time>
      </trkpt>
      <trkpt lat="43.27189" lon="5.58122">
        <ele>316</ele>
        <time>2021-12-19T19:25:48+01:00</time>
      </trkpt>
      <trkpt lat="43.27251" lon="5.58344">
        <ele>332</ele>
        <time>2021-12-19T19:25:53+01:00</time>
      </trkpt>
      <trkpt lat="43.27281" lon="5.58495">
        <ele>330</ele>
        <time>2021-12-19T19:25:58+01:00</time>
      </trkpt>
      <trkpt lat="43.2713" lon="5.58388">
        <ele>341</ele>
        <time>2021-12-19T19:26:03+01:00</time>
      </trkpt>
      <trkpt lat="43.27052" lon="5.58381">
        <ele>342</ele>
        <time>2021-12-19T19:26:08+01:00</time>
      </trkpt>
      <trkpt lat="43.27057" lon="5.5827">
        <ele>353</ele>
        <time>2021-12-19T19:26:13+01:00</time>
      </trkpt>
      <trkpt lat="43.26941" lon="5.58055">
        <ele>352</ele>
        <time>2021-12-19T19:26:18+01:00</time>
      </trkpt>
      <trkpt lat="43.26882" lon="5.58066">
        <ele>348</ele>
        <time>2021-12-19T19:26:23+01:00</time>
      </trkpt>
      <trkpt lat="43.26761" lon="5.57837">
        <ele>338</ele>
        <time>2021-12-19T19:26:28+01:00</time>
      </trkpt>
      <trkpt lat="43.26758" lon="5.57748">
        <ele>340</ele>
        <time>2021-12-19T19:26:33+01:00</time>
      </trkpt>
      <trkpt lat="43.2675" lon="5.57933">
        <ele>326</ele>
        <time>2021-12-19T19:26:38+01:00</time>
      </trkpt>
      <trkpt lat="43.2678" lon="5.58044">
        <ele>323</ele>
        <time>2021-12-19T19:26:43+01:00</time>
      </trkpt>
      <trkpt lat="43.26766" lon="5.58107">
        <ele>312</ele>
        <time>2021-12-19T19:26:48+01:00</time>
      </trkpt>
      <trkpt lat="43.26707" lon="5.58014">
        <ele>305</ele>
        <time>2021-12-19T19:26:53+01:00</time>
      </trkpt>
      <trkpt lat="43.26637" lon="5.58003">
        <ele>295</ele>
        <time>2021-12-19T19:26:58+01:00</time>
      </trkpt>
      <trkpt lat="43.26656" lon="5.58048">
        <ele>292</ele>
        <time>2021-12-19T19:27:03+01:00</time>
      </trkpt>
      <trkpt lat="43.26688" lon="5.58125">
        <ele>283</ele>
        <time>2021-12-19T19:27:08+01:00</time>
      </trkpt>
      <trkpt lat="43.26691" lon="5.58318">
        <ele>265</ele>
        <time>2021-12-19T19:27:13+01:00</time>
      </trkpt>
      <trkpt lat="43.26658" lon="5.5821">
        <ele>261</ele>
        <time>2021-12-19T19:27:18+01:00</time>
      </trkpt>
      <trkpt lat="43.26591" lon="5.58233">
        <ele>249</ele>
        <time>2021-12-19T19:27:23+01:00</time>
      </trkpt>
      <trkpt lat="43.26472" lon="5.58244">
        <ele>232</ele>
        <time>2021-12-19T19:27:28+01:00</time>
      </trkpt>
      <trkpt lat="43.26435" lon="5.5811">
        <ele>234</ele>
        <time>2021-12-19T19:27:33+01:00</time>
      </trkpt>
      <trkpt lat="43.26397" lon="5.58051">
        <ele>227</ele>
        <time>2021-12-19T19:27:38+01:00</time>
      </trkpt>
      <trkpt lat="43.26278" lon="5.57877">
        <ele>213</ele>
        <time>2021-12-19T19:27:43+01:00</time>
      </trkpt>
      <trkpt lat="43.26246" lon="5.58066">
        <ele>203</ele>
        <time>2021-12-19T19:27:48+01:00</time>
      </trkpt>
      <trkpt lat="43.26167" lon="5.58068">
        <ele>209</ele>
        <time>2021-12-19T19:27:53+01:00</time>
      </trkpt>
      <trkpt lat="43.26054" lon="5.57996">
        <ele>216</ele>
        <time>2021-12-19T19:27:58+01:00</time>
      </trkpt>
      <trkpt lat="43.25901" lon="5.57837">
        <ele>227</ele>
        <time>2021-12-19T19:28:03+01:00</time>
      </trkpt>
      <trkpt lat="43.2569" lon="5.57565">
        <ele>265</ele>
        <time>2021-12-19T19:28:08+01:00</time>
      </trkpt>
      <trkpt lat="43.25695" lon="5.57706">
        <ele>280</ele>
        <time>2021-12-19T19:28:13+01:00</time>
      </trkpt>
      <trkpt lat="43.25711" lon="5.57764">
        <ele>283</ele>
        <time>2021-12-19T19:28:18+01:00</time>
      </trkpt>
      <trkpt lat="43.25685" lon="5.57815">
        <ele>297</ele>
        <time>2021-12-19T19:28:23+01:00</time>
      </trkpt>
      <trkpt lat="43.2565" lon="5.57732">
        <ele>299</ele>
        <time>2021-12-19T19:28:28+01:00</time>
      </trkpt>
      <trkpt lat="43.25552" lon="5.57724">
        <ele>310</ele>
        <time>2021-12-19T19:28:33+01:00</time>
      </trkpt>
      <trkpt lat="43.25503" lon="5.57716">
        <ele>309</ele>
        <time>2021-12-19T19:28:38+01:00</time>
      </trkpt>
      <trkpt lat="43.25354" lon="5.57787">
        <ele>303</ele>
        <time>2021-12-19T19:28:43+01:00</time>
      </trkpt>
      <trkpt lat="43.25302" lon="5.5776">
        <ele>309</ele>
        <time>2021-12-19T19:28:48+01:00</time>
      </trkpt>
      <trkpt lat="43.25282" lon="5.57826">
        <ele>307</ele>
        <time>2021-12-19T19:28:53+01:00</time>
      </trkpt>
      <trkpt lat="43.25155" lon="5.5792">
        <ele>296</ele>
        <time>2021-12-19T19:28:58+01:00</time>
      </trkpt>
      <trkpt lat="43.25106" lon="5.58002">
        <ele>294</ele>
        <time>2021-12-19T19:29:03+01:00</time>
      </trkpt>
      <trkpt lat="43.25031" lon="5.58253">
        <ele>283</ele>
        <time>2021-12-19T19:29:08+01:00</time>
      </trkpt>
      <trkpt lat="43.24962" lon="5.58342">
        <ele>279</ele>
        <time>2021-12-19T19:29:13+01:00</time>
      </trkpt>
      <trkpt lat="43.24932" lon="5.58488">
        <ele>275</ele>
        <time>2021-12-19T19:29:18+01:00</time>
      </trkpt>
      <trkpt lat="43.24845" lon="5.58833">
        <ele>272</ele>
        <time>2021-12-19T19:29:23+01:00</time>
      </trkpt>
      <trkpt lat="43.24739" lon="5.59055">
        <ele>274</ele>
        <time>2021-12-19T19:29:28+01:00</time>
      </trkpt>
      <trkpt lat="43.24636" lon="5.59194">
        <ele>275</ele>
        <time>2021-12-19T19:29:33+01:00</time>
      </trkpt>
      <trkpt lat="43.2453" lon="5.59282">
        <ele>280</ele>
        <time>2021-12-19T19:29:38+01:00</time>
      </trkpt>
      <trkpt lat="43.24412" lon="5.59319">
        <ele>285</ele>
        <time>2021-12-19T19:29:43+01:00</time>
      </trkpt>
      <trkpt lat="43.24264" lon="5.59329">
        <ele>295</ele>
        <time>2021-12-19T19:29:48+01:00</time>
      </trkpt>
      <trkpt lat="43.24146" lon="5.59394">
        <ele>301</ele>
        <time>2021-12-19T19:29:53+01:00</time>
      </trkpt>
      <trkpt lat="43.24033" lon="5.59306">
        <ele>313</ele>
        <time>2021-12-19T19:29:58+01:00</time>
      </trkpt>
      <trkpt lat="43.23905" lon="5.59316">
        <ele>322</ele>
        <time>2021-12-19T19:30:03+01:00</time>
      </trkpt>
      <trkpt lat="43.23841" lon="5.59454">
        <ele>331</ele>
        <time>2021-12-19T19:30:08+01:00</time>
      </trkpt>
      <trkpt lat="43.23818" lon="5.5937">
        <ele>332</ele>
        <time>2021-12-19T19:30:13+01:00</time>
      </trkpt>
      <trkpt lat="43.2374" lon="5.59211">
        <ele>335</ele>
        <time>2021-12-19T19:30:18+01:00</time>
      </trkpt>
      <trkpt lat="43.2356" lon="5.59086">
        <ele>347</ele>
        <time>2021-12-19T19:30:23+01:00</time>
      </trkpt>
      <trkpt lat="43.23634" lon="5.59323">
        <ele>381</ele>
        <time>2021-12-19T19:30:28+01:00</time>
      </trkpt>
      <trkpt lat="43.23634" lon="5.59454">
        <ele>389</ele>
        <time>2021-12-19T19:30:33+01:00</time>
      </trkpt>
      <trkpt lat="43.23609" lon="5.59691">
        <ele>390</ele>
        <time>2021-12-19T19:30:38+01:00</time>
      </trkpt>
      <trkpt lat="43.23624" lon="5.59816">
        <ele>390</ele>
        <time>2021-12-19T19:30:43+01:00</time>
      </trkpt>
      <trkpt lat="43.2368" lon="5.59887">
        <ele>391</ele>
        <time>2021-12-19T19:30:48+01:00</time>
      </trkpt>
      <trkpt lat="43.23747" lon="5.6011">
        <ele>412</ele>
        <time>2021-12-19T19:30:53+01:00</time>
      </trkpt>
      <trkpt lat="43.23705" lon="5.60317">
        <ele>417</ele>
        <time>2021-12-19T19:30:58+01:00</time>
      </trkpt>
      <trkpt lat="43.23755" lon="5.60558">
        <ele>416</ele>
        <time>2021-12-19T19:31:03+01:00</time>
      </trkpt>
      <trkpt lat="43.2391" lon="5.60764">
        <ele>413</ele>
        <time>2021-12-19T19:31:08+01:00</time>
      </trkpt>
      <trkpt lat="43.23948" lon="5.60854">
        <ele>411</ele>
        <time>2021-12-19T19:31:13+01:00</time>
      </trkpt>
      <trkpt lat="43.23851" lon="5.6103">
        <ele>392</ele>
        <time>2021-12-19T19:31:18+01:00</time>
      </trkpt>
      <trkpt lat="43.23763" lon="5.61043">
        <ele>380</ele>
        <time>2021-12-19T19:31:23+01:00</time>
      </trkpt>
      <trkpt lat="43.23707" lon="5.61146">
        <ele>380</ele>
        <time>2021-12-19T19:31:28+01:00</time>
      </trkpt>
      <trkpt lat="43.23676" lon="5.61305">
        <ele>368</ele>
        <time>2021-12-19T19:31:33+01:00</time>
      </trkpt>
      <trkpt lat="43.23598" lon="5.61403">
        <ele>354</ele>
        <time>2021-12-19T19:31:38+01:00</time>
      </trkpt>
      <trkpt lat="43.23391" lon="5.61421">
        <ele>340</ele>
        <time>2021-12-19T19:31:43+01:00</time>
      </trkpt>
      <trkpt lat="43.23316" lon="5.61386">
        <ele>340</ele>
        <time>2021-12-19T19:31:48+01:00</time>
      </trkpt>
      <trkpt lat="43.23044" lon="5.61515">
        <ele>318</ele>
        <time>2021-12-19T19:31:53+01:00</time>
      </trkpt>
      <trkpt lat="43.22994" lon="5.61438">
        <ele>314</ele>
        <time>2021-12-19T19:31:58+01:00</time>
      </trkpt>
      <trkpt lat="43.22903" lon="5.61425">
        <ele>303</ele>
        <time>2021-12-19T19:32:03+01:00</time>
      </trkpt>
      <trkpt lat="43.22722" lon="5.61258">
        <ele>290</ele>
        <time>2021-12-19T19:32:08+01:00</time>
      </trkpt>
      <trkpt lat="43.22581" lon="5.61352">
        <ele>280</ele>
        <time>2021-12-19T19:32:13+01:00</time>
      </trkpt>
      <trkpt lat="43.22481" lon="5.61313">
        <ele>287</ele>
        <time>2021-12-19T19:32:18+01:00</time>
      </trkpt>
      <trkpt lat="43.22387" lon="5.61245">
        <ele>276</ele>
        <time>2021-12-19T19:32:23+01:00</time>
      </trkpt>
      <trkpt lat="43.22278" lon="5.61245">
        <ele>262</ele>
        <time>2021-12-19T19:32:28+01:00</time>
      </trkpt>
      <trkpt lat="43.22169" lon="5.61176">
        <ele>245</ele>
        <time>2021-12-19T19:32:33+01:00</time>
      </trkpt>
      <trkpt lat="43.2214" lon="5.6112">
        <ele>240</ele>
        <time>2021-12-19T19:32:38+01:00</time>
      </trkpt>
      <trkpt lat="43.22128" lon="5.61047">
        <ele>235</ele>
        <time>2021-12-19T19:32:43+01:00</time>
      </trkpt>
      <trkpt lat="43.21993" lon="5.60996">
        <ele>228</ele>
        <time>2021-12-19T19:32:48+01:00</time>
      </trkpt>
      <trkpt lat="43.21909" lon="5.60983">
        <ele>222</ele>
        <time>2021-12-19T19:32:53+01:00</time>
      </trkpt>
      <trkpt lat="43.21846" lon="5.61104">
        <ele>209</ele>
        <time>2021-12-19T19:32:58+01:00</time>
      </trkpt>
      <trkpt lat="43.2178" lon="5.61211">
        <ele>197</ele>
        <time>2021-12-19T19:33:03+01:00</time>
      </trkpt>
      <trkpt lat="43.21683" lon="5.6125">
        <ele>180</ele>
        <time>2021-12-19T19:33:08+01:00</time>
      </trkpt>
      <trkpt lat="43.21692" lon="5.6134">
        <ele>174</ele>
        <time>2021-12-19T19:33:13+01:00</time>
      </trkpt>
      <trkpt lat="43.21523" lon="5.61499">
        <ele>142</ele>
        <time>2021-12-19T19:33:18+01:00</time>
      </trkpt>
      <trkpt lat="43.21464" lon="5.61615">
        <ele>121</ele>
        <time>2021-12-19T19:33:23+01:00</time>
      </trkpt>
      <trkpt lat="43.21505" lon="5.61671">
        <ele>120</ele>
        <time>2021-12-19T19:33:28+01:00</time>
      </trkpt>
      <trkpt lat="43.21411" lon="5.61722">
        <ele>116</ele>
        <time>2021-12-19T19:33:33+01:00</time>
      </trkpt>
      <trkpt lat="43.21336" lon="5.61877">
        <ele>112</ele>
        <time>2021-12-19T19:33:38+01:00</time>
      </trkpt>
      <trkpt lat="43.20982" lon="5.6213">
        <ele>83</ele>
        <time>2021-12-19T19:33:43+01:00</time>
      </trkpt>
      <trkpt lat="43.20867" lon="5.62186">
        <ele>70</ele>
        <time>2021-12-19T19:33:48+01:00</time>
      </trkpt>
      <trkpt lat="43.20826" lon="5.62271">
        <ele>69</ele>
        <time>2021-12-19T19:33:53+01:00</time>
      </trkpt>
      <trkpt lat="43.2056" lon="5.62469">
        <ele>59</ele>
        <time>2021-12-19T19:33:58+01:00</time>
      </trkpt>
      <trkpt lat="43.20422" lon="5.62662">
        <ele>46</ele>
        <time>2021-12-19T19:34:03+01:00</time>
      </trkpt>
      <trkpt lat="43.20341" lon="5.6258">
        <ele>48</ele>
        <time>2021-12-19T19:34:08+01:00</time>
      </trkpt>
      <trkpt lat="43.20135" lon="5.62304">
        <ele>40</ele>
        <time>2021-12-19T19:34:13+01:00</time>
      </trkpt>
      <trkpt lat="43.19759" lon="5.62124">
        <ele>33</ele>
        <time>2021-12-19T19:34:18+01:00</time>
      </trkpt>
      <trkpt lat="43.19522" lon="5.61866">
        <ele>25</ele>
        <time>2021-12-19T19:34:23+01:00</time>
      </trkpt>
      <trkpt lat="43.19174" lon="5.61789">
        <ele>18</ele>
        <time>2021-12-19T19:34:28+01:00</time>
      </trkpt>
      <trkpt lat="43.18927" lon="5.61677">
        <ele>14</ele>
        <time>2021-12-19T19:34:33+01:00</time>
      </trkpt>
      <trkpt lat="43.18733" lon="5.61514">
        <ele>15</ele>
        <time>2021-12-19T19:34:38+01:00</time>
      </trkpt>
      <trkpt lat="43.18599" lon="5.61437">
        <ele>9</ele>
        <time>2021-12-19T19:34:43+01:00</time>
      </trkpt>
      <trkpt lat="43.18423" lon="5.61343">
        <ele>8</ele>
        <time>2021-12-19T19:34:48+01:00</time>
      </trkpt>
      <trkpt lat="43.18304" lon="5.61265">
        <ele>7</ele>
        <time>2021-12-19T19:34:53+01:00</time>
      </trkpt>
      <trkpt lat="43.18126" lon="5.6124">
        <ele>7</ele>
        <time>2021-12-19T19:34:58+01:00</time>
      </trkpt>
      <trkpt lat="43.18013" lon="5.61141">
        <ele>7</ele>
        <time>2021-12-19T19:35:03+01:00</time>
      </trkpt>
      <trkpt lat="43.17893" lon="5.6107">
        <ele>8</ele>
        <time>2021-12-19T19:35:08+01:00</time>
      </trkpt>
      <trkpt lat="43.17842" lon="5.61025">
        <ele>10</ele>
        <time>2021-12-19T19:35:13+01:00</time>
      </trkpt>
      <trkpt lat="43.17749" lon="5.60939">
        <ele>12</ele>
        <time>2021-12-19T19:35:18+01:00</time>
      </trkpt>
      <trkpt lat="43.17779" lon="5.60772">
        <ele>17</ele>
        <time>2021-12-19T19:35:23+01:00</time>
      </trkpt>
      <trkpt lat="43.1769" lon="5.60674">
        <ele>10</ele>
        <time>2021-12-19T19:35:28+01:00</time>
      </trkpt>
    </trkseg>
  </trk>
</gpx>